Kodiak, AK

2:47 AM AKDT on October 22, 2014 (GMT -0800)
Pillar Mountain | Change Station
CLOSE
Current Station
Personal Weather Station
Location: Kodiak, AK
Elevation: 1204 ft
Nearby Weather Stations

Elev 1204 ft 57.79 °N, 152.44 °W | Updated 9 minutes ago

Overcast
Overcast
35.8 °F
Feels Like 24 °F
N
25.8
Wind Variable Wind from NW

Today
High -- | Low -- °F
--% Chance of Precip.
Yesterday
High -- | Low -- °F
Precip. -- in
9:00 AM 6:46 PM
Waning Crescent, 2% visible
Pressure 29.18 in
Visibility 10.0 miles
Clouds Overcast 1900 ft
Windchill 24 °F
Dew Point 33 °F
Humidity 90%
Rainfall 0.00 in
Snow Depth Not available.
UV 0 out of 12
Pollen Not available.
Air Quality Not available.
Flu Activity Sporadic
METAR PADQ 220953Z 32013G20KT 10SM OVC019 05/02 A2918 RMK AO2 SLP881 T00500017

More Conditions Fewer Conditions

Pressure 29.18 in
Visibility 10.0 miles
Clouds Overcast 1900 ft
Windchill 24 °F
Dew Point 33 °F
Humidity 90%
Rainfall 0.00 in
Snow Depth Not available.
UV 0 out of 12
Pollen Not available.
Air Quality Not available.
Flu Activity Sporadic
METAR PADQ 220953Z 32013G20KT 10SM OVC019 05/02 A2918 RMK AO2 SLP881 T00500017

More Conditions Fewer Conditions

10-Day Weather Forecast

Almanac

Astronomy

Oct. 22, 2014 Rise Set
Actual Time 9:00 AM AKDT 6:46 PM AKDT
Civil Twilight 8:20 AM AKDT 7:26 PM AKDT
Nautical Twilight 7:34 AM AKDT 8:12 PM AKDT
Astronomical Twilight 6:49 AM AKDT 8:57 PM AKDT
Moon 7:39 AM AKDT 6:27 PM AKDT
Length of Visible Light 11h 06m
Length of Day
9h 45m
Tomorrow will be 4m 49s shorter.
Waning Crescent, 2% of the Moon is Illuminated
Today
Waning Crescent
Oct 23
New
Oct 30
First Quarter
Nov 6
Full
Nov 14
Last Quarter

Today's Extremes

State Highs State Lows

Community

WunderPhotos

Upload Photos

1,763,902 photos uploaded!

Nearby

Snow Depth

Station Depth Elevation
Port Graham 0 in 300 ft
Nuka Glacier 0 in 1250 ft
Mcneil Canyon 1 in 1320 ft
MF Bradley River 0 in 2300 ft
Cooper Lake 0 in 1200 ft

Earthquake Activity

City Distance Mag. Time & Date
No recent earthquake activity has been reported nearby.
Minimum magnitude displayed is 2.5.

Coastal Water Temperatures

Place Temperature
No Stations Reporting

Nearby Weather Stations